createdAt,value
2022-09-11T00:00:23.559Z,8.93
2022-09-11T00:03:13.641Z,7.07
2022-09-11T00:06:06.664Z,2.40
2022-09-11T00:09:00.699Z,4.43
2022-09-11T00:11:51.084Z,4.38
2022-09-11T00:14:41.187Z,6.82
2022-09-11T00:17:31.217Z,4.88
2022-09-11T00:20:21.537Z,3.67
2022-09-11T00:23:11.353Z,5.03
2022-09-11T00:26:03.112Z,10.38
2022-09-11T00:28:53.935Z,4.55
2022-09-11T00:31:44.497Z,2.97
2022-09-11T00:34:34.947Z,4.03
2022-09-11T00:37:25.301Z,2.60
2022-09-11T00:40:16.700Z,4.88
2022-09-11T00:43:09.933Z,6.72
2022-09-11T00:46:04.617Z,3.63
2022-09-11T00:48:57.150Z,4.03
2022-09-11T00:51:53.410Z,8.82
2022-09-11T00:54:50.177Z,3.50
2022-09-11T00:57:46.902Z,7.72
2022-09-11T01:00:39.731Z,2.65
2022-09-11T01:03:32.115Z,3.92
2022-09-11T01:06:24.243Z,8.88
2022-09-11T01:09:14.711Z,6.93
2022-09-11T01:12:18.463Z,6.55
2022-09-11T01:15:26.707Z,5.15
2022-09-11T01:18:32.246Z,4.95
2022-09-11T01:21:36.031Z,6.93
2022-09-11T01:24:44.768Z,5.47
2022-09-11T01:27:44.700Z,9.50
2022-09-11T01:30:41.130Z,3.60
2022-09-11T01:33:55.187Z,4.35
2022-09-11T01:36:53.705Z,4.22
2022-09-11T01:39:53.823Z,7.30
2022-09-11T01:42:46.578Z,3.97
2022-09-11T01:45:40.500Z,3.75
2022-09-11T01:48:39.016Z,6.72
2022-09-11T01:51:32.927Z,6.35
2022-09-11T01:54:29.669Z,5.13
2022-09-11T01:57:37.021Z,4.90
2022-09-11T02:00:28.672Z,7.78
2022-09-11T02:03:27.207Z,5.78
2022-09-11T02:06:24.247Z,6.43
2022-09-11T02:09:20.251Z,5.18
2022-09-11T02:12:15.271Z,3.90
2022-09-11T02:15:05.856Z,4.72
2022-09-11T02:18:16.028Z,4.82
2022-09-11T02:21:06.168Z,6.85
2022-09-11T02:23:57.295Z,6.40
2022-09-11T02:26:52.647Z,3.35
2022-09-11T02:29:43.213Z,9.98
2022-09-11T02:32:36.822Z,9.70
2022-09-11T02:35:37.164Z,7.00
2022-09-11T02:38:36.460Z,4.05
2022-09-11T02:41:46.257Z,8.43
2022-09-11T02:45:14.759Z,8.50
2022-09-11T02:48:27.140Z,5.10
2022-09-11T02:51:41.997Z,11.02
2022-09-11T02:54:54.158Z,5.70
2022-09-11T02:57:55.027Z,5.57
2022-09-11T03:00:46.748Z,9.27
2022-09-11T03:03:45.364Z,6.50
2022-09-11T03:06:36.753Z,4.90
2022-09-11T03:09:26.832Z,6.43
2022-09-11T03:12:22.975Z,7.25
2022-09-11T03:15:15.942Z,10.80
2022-09-11T03:18:06.155Z,7.32
2022-09-11T03:20:56.947Z,5.43
2022-09-11T03:23:48.857Z,8.60
2022-09-11T03:26:38.823Z,5.95
2022-09-11T03:29:29.051Z,9.48
2022-09-11T03:32:22.810Z,7.40
2022-09-11T03:35:13.047Z,6.18
2022-09-11T03:38:03.394Z,10.38
2022-09-11T03:40:55.055Z,8.13
2022-09-11T03:43:45.183Z,9.07
2022-09-11T03:46:35.695Z,8.20
2022-09-11T03:49:25.812Z,9.52
2022-09-11T03:52:15.675Z,9.10
2022-09-11T03:55:06.184Z,5.85
2022-09-11T03:57:56.381Z,9.02
2022-09-11T04:00:48.353Z,9.05
2022-09-11T04:03:39.967Z,8.07
2022-09-11T04:06:35.572Z,10.13
2022-09-11T04:09:27.620Z,5.28
2022-09-11T04:12:19.498Z,8.52
2022-09-11T04:15:09.836Z,8.40
2022-09-11T04:18:04.753Z,12.20
2022-09-11T04:20:57.209Z,8.50
2022-09-11T04:23:51.993Z,7.10
2022-09-11T04:26:42.427Z,6.40
2022-09-11T04:29:40.986Z,7.13
2022-09-11T04:32:32.450Z,7.68
2022-09-11T04:35:23.186Z,8.55
2022-09-11T04:38:18.986Z,11.48
2022-09-11T04:41:10.753Z,8.07
2022-09-11T04:44:04.694Z,9.95
2022-09-11T04:46:56.517Z,7.93
2022-09-11T04:49:48.662Z,6.68
2022-09-11T04:52:39.192Z,8.45
2022-09-11T04:55:31.375Z,9.77
2022-09-11T04:58:22.173Z,11.10
2022-09-11T05:01:15.204Z,10.55
2022-09-11T05:04:08.449Z,9.43
2022-09-11T05:06:59.297Z,6.75
2022-09-11T05:09:49.741Z,9.65
2022-09-11T05:12:41.745Z,7.78
2022-09-11T05:15:32.197Z,9.30
2022-09-11T05:18:22.875Z,9.85
2022-09-11T05:21:15.163Z,8.60
2022-09-11T05:24:05.409Z,9.13
2022-09-11T05:26:58.974Z,10.32
2022-09-11T05:29:50.433Z,9.35
2022-09-11T05:32:40.348Z,9.25
2022-09-11T05:35:32.500Z,9.02
2022-09-11T05:38:23.240Z,9.07
2022-09-11T05:41:16.470Z,10.15
2022-09-11T05:44:06.561Z,9.55
2022-09-11T05:46:58.935Z,8.32
2022-09-11T05:49:49.574Z,14.10
2022-09-11T05:52:39.979Z,6.97
2022-09-11T05:55:35.516Z,9.30
2022-09-11T05:58:31.627Z,8.45
2022-09-11T06:01:24.351Z,8.23
2022-09-11T06:04:22.827Z,11.85
2022-09-11T06:07:15.636Z,6.25
2022-09-11T06:10:09.984Z,10.73
2022-09-11T06:13:00.328Z,8.57
2022-09-11T06:15:50.837Z,11.43
2022-09-11T06:18:42.295Z,9.93
2022-09-11T06:21:34.019Z,11.75
2022-09-11T06:24:33.986Z,9.95
2022-09-11T06:27:25.094Z,8.05
2022-09-11T06:30:16.611Z,11.90
2022-09-11T06:33:07.659Z,8.13
2022-09-11T06:35:59.678Z,10.13
2022-09-11T06:38:57.896Z,9.88
2022-09-11T06:41:50.292Z,9.35
2022-09-11T06:44:42.821Z,15.52
2022-09-11T06:47:35.164Z,8.65
2022-09-11T06:50:26.564Z,8.18
2022-09-11T06:53:29.709Z,11.32
2022-09-11T06:56:19.565Z,8.75
2022-09-11T06:59:10.125Z,8.20
2022-09-11T07:02:00.718Z,8.05
2022-09-11T07:04:53.141Z,12.13
2022-09-11T07:07:46.241Z,10.20
2022-09-11T07:10:36.645Z,7.60
2022-09-11T07:13:26.536Z,10.77
2022-09-11T07:16:17.216Z,9.27
2022-09-11T07:19:13.514Z,9.43
2022-09-11T07:22:03.978Z,11.80
2022-09-11T07:24:56.108Z,9.63
2022-09-11T07:27:46.043Z,8.80
2022-09-11T07:30:38.119Z,9.05
2022-09-11T07:33:28.659Z,8.13
2022-09-11T07:36:26.232Z,10.00
2022-09-11T07:39:17.937Z,9.68
2022-09-11T07:42:14.593Z,9.70
2022-09-11T07:45:06.050Z,10.10
2022-09-11T07:47:57.422Z,7.40
2022-09-11T07:51:04.976Z,9.10
2022-09-11T07:53:57.811Z,7.63
2022-09-11T07:56:48.744Z,9.95
2022-09-11T07:59:39.266Z,11.27
2022-09-11T08:02:30.704Z,9.07
2022-09-11T08:05:21.052Z,6.20
2022-09-11T08:08:11.659Z,11.70
2022-09-11T08:11:06.505Z,9.02
2022-09-11T08:13:56.966Z,11.00
2022-09-11T08:16:48.350Z,11.60
2022-09-11T08:19:39.025Z,9.60
2022-09-11T08:22:29.316Z,11.02
2022-09-11T08:25:19.244Z,10.82
2022-09-11T08:28:10.209Z,7.97
2022-09-11T08:31:05.156Z,10.15
2022-09-11T08:33:56.494Z,7.65
2022-09-11T08:36:46.608Z,14.52
2022-09-11T08:39:36.717Z,9.70
2022-09-11T08:42:29.771Z,10.85
2022-09-11T08:45:23.765Z,9.35
2022-09-11T08:48:14.575Z,12.48
2022-09-11T08:51:04.767Z,10.70
2022-09-11T08:53:56.902Z,9.10
2022-09-11T08:56:49.552Z,9.68
2022-09-11T09:00:14.131Z,9.20
2022-09-11T09:03:38.238Z,7.50
2022-09-11T09:06:48.529Z,8.52
2022-09-11T09:09:56.371Z,5.93
2022-09-11T09:13:15.150Z,8.65
2022-09-11T09:16:52.111Z,7.18
2022-09-11T09:19:55.288Z,6.85
2022-09-11T09:22:57.975Z,6.50
2022-09-11T09:25:53.059Z,9.70
2022-09-11T09:28:50.540Z,6.97
2022-09-11T09:31:44.312Z,6.18
2022-09-11T09:34:38.367Z,4.90
2022-09-11T09:37:30.650Z,6.07
2022-09-11T09:40:25.632Z,6.45
2022-09-11T09:43:30.595Z,8.95
2022-09-11T09:46:27.639Z,8.03
2022-09-11T09:49:34.228Z,6.35
2022-09-11T09:52:34.194Z,6.47
2022-09-11T09:55:25.489Z,7.15
2022-09-11T09:58:15.723Z,7.38
2022-09-11T10:01:43.922Z,7.25
2022-09-11T10:04:34.340Z,7.45
2022-09-11T10:07:24.591Z,6.97
2022-09-11T10:10:26.642Z,7.75
2022-09-11T10:13:24.992Z,6.18
2022-09-11T10:16:26.621Z,10.77
2022-09-11T10:19:43.632Z,8.77
2022-09-11T10:22:33.778Z,6.05
2022-09-11T10:25:26.746Z,6.28
2022-09-11T10:28:21.596Z,9.02
2022-09-11T10:34:04.711Z,6.00
2022-09-11T10:37:00.665Z,7.47
2022-09-11T10:39:52.001Z,9.40
2022-09-11T10:42:42.482Z,5.28
2022-09-11T10:45:33.775Z,11.88
2022-09-11T10:48:24.060Z,7.72
2022-09-11T10:51:14.001Z,8.77
2022-09-11T10:54:08.536Z,6.07
2022-09-11T10:57:13.178Z,5.70
2022-09-11T11:00:12.553Z,6.25
2022-09-11T11:03:12.460Z,6.10
2022-09-11T11:06:25.780Z,6.97
2022-09-11T11:09:28.981Z,5.90
2022-09-11T11:12:40.145Z,7.70
2022-09-11T11:15:48.781Z,6.47
2022-09-11T11:19:03.209Z,6.63
2022-09-11T11:22:06.641Z,8.82
2022-09-11T11:25:18.496Z,8.55
2022-09-11T11:28:28.165Z,8.25
2022-09-11T11:31:40.335Z,7.25
2022-09-11T11:34:39.848Z,6.45
2022-09-11T11:37:36.251Z,5.72
2022-09-11T11:40:36.811Z,8.27
2022-09-11T11:43:32.297Z,6.60
2022-09-11T11:46:29.882Z,5.45
2022-09-11T11:50:04.484Z,7.38
2022-09-11T11:53:12.377Z,6.28
2022-09-11T11:56:20.192Z,5.45
2022-09-11T11:59:33.667Z,7.03
2022-09-11T12:02:30.506Z,7.07
2022-09-11T12:05:25.337Z,6.85
2022-09-11T12:08:16.662Z,5.88
2022-09-11T12:11:07.666Z,4.78
2022-09-11T12:13:59.189Z,5.78
2022-09-11T12:16:49.278Z,14.73
2022-09-11T12:20:11.439Z,8.70
2022-09-11T12:23:01.927Z,5.88
2022-09-11T12:26:17.389Z,7.10
2022-09-11T12:29:14.579Z,9.77
2022-09-11T12:32:04.522Z,7.90
2022-09-11T12:34:54.259Z,7.70
2022-09-11T12:37:54.057Z,5.82
2022-09-11T12:41:07.429Z,6.75
2022-09-11T12:43:58.108Z,7.55
2022-09-11T12:46:48.032Z,5.68
2022-09-11T12:49:39.644Z,5.90
2022-09-11T12:52:39.877Z,5.75
2022-09-11T12:55:35.264Z,7.15
2022-09-11T12:58:34.104Z,7.22
2022-09-11T13:01:30.494Z,8.07
2022-09-11T13:04:23.897Z,9.48
2022-09-11T13:07:29.972Z,8.13
2022-09-11T13:10:40.487Z,7.30
2022-09-11T13:13:44.196Z,7.28
2022-09-11T13:16:34.934Z,7.63
2022-09-11T13:19:33.899Z,6.93
2022-09-11T13:22:29.069Z,12.10
2022-09-11T13:25:26.443Z,7.32
2022-09-11T13:28:22.242Z,7.65
2022-09-11T13:31:19.954Z,5.05
2022-09-11T13:34:16.395Z,4.55
2022-09-11T13:37:15.993Z,4.72
2022-09-11T13:40:08.071Z,8.75
2022-09-11T13:43:00.331Z,6.30
2022-09-11T13:46:09.496Z,9.63
2022-09-11T13:49:06.568Z,5.68
2022-09-11T13:51:57.156Z,5.90
2022-09-11T13:54:52.957Z,5.35
2022-09-11T13:57:56.460Z,5.00
2022-09-11T14:00:50.172Z,7.32
2022-09-11T14:03:47.099Z,5.60
2022-09-11T14:06:37.441Z,6.18
2022-09-11T14:09:27.624Z,9.02
2022-09-11T14:12:20.307Z,5.38
2022-09-11T14:15:22.355Z,5.03
2022-09-11T14:18:46.112Z,5.05
2022-09-11T14:21:48.083Z,5.00
2022-09-11T14:24:39.019Z,4.88
2022-09-11T14:27:35.082Z,4.50
2022-09-11T14:30:33.555Z,8.27
2022-09-11T14:33:27.216Z,6.25
2022-09-11T14:36:20.129Z,5.00
2022-09-11T14:39:56.057Z,4.30
2022-09-11T14:42:46.388Z,4.18
2022-09-11T14:45:36.335Z,4.60
2022-09-11T14:48:30.964Z,4.10
2022-09-11T14:51:20.904Z,4.57
2022-09-11T14:54:15.139Z,4.82
2022-09-11T14:57:16.166Z,6.20
2022-09-11T15:00:10.935Z,5.73
2022-09-11T15:03:01.262Z,5.55
2022-09-11T15:05:55.794Z,4.32
2022-09-11T15:08:47.132Z,4.47
2022-09-11T15:11:39.488Z,5.57
2022-09-11T15:14:52.303Z,7.55
2022-09-11T15:17:40.208Z,4.55
2022-09-11T15:20:30.161Z,7.35
2022-09-11T15:23:20.826Z,4.45
2022-09-11T15:26:11.864Z,6.25
2022-09-11T15:29:02.168Z,5.30
2022-09-11T15:31:53.448Z,5.30
2022-09-11T15:34:45.372Z,4.20
2022-09-11T15:37:35.875Z,4.85
2022-09-11T15:40:26.211Z,6.25
2022-09-11T15:43:16.436Z,5.15
2022-09-11T15:46:11.346Z,9.27
2022-09-11T15:49:01.791Z,7.00
2022-09-11T15:51:53.851Z,5.40
2022-09-11T15:54:45.502Z,6.10
2022-09-11T15:57:36.724Z,5.60
2022-09-11T16:00:27.341Z,6.07
2022-09-11T16:03:17.696Z,4.57
2022-09-11T16:06:07.755Z,5.25
2022-09-11T16:08:59.226Z,7.50
2022-09-11T16:11:50.445Z,4.57
2022-09-11T16:14:40.486Z,5.32
2022-09-11T16:17:32.362Z,4.72
2022-09-11T16:20:22.188Z,5.78
2022-09-11T16:23:12.332Z,4.97
2022-09-11T16:26:12.063Z,5.25
2022-09-11T16:29:02.100Z,5.70
2022-09-11T16:31:51.927Z,5.03
2022-09-11T16:34:42.222Z,6.50
2022-09-11T16:37:35.398Z,6.47
2022-09-11T16:40:25.123Z,5.63
2022-09-11T16:43:18.235Z,7.03
2022-09-11T16:46:13.926Z,5.07
2022-09-11T16:49:04.447Z,5.07
2022-09-11T16:51:54.783Z,7.47
2022-09-11T16:54:48.774Z,5.00
2022-09-11T16:57:39.120Z,7.35
2022-09-11T17:00:29.404Z,5.93
2022-09-11T17:03:19.686Z,7.00
2022-09-11T17:06:11.824Z,5.65
2022-09-11T17:09:03.892Z,6.72
2022-09-11T17:11:54.125Z,8.25
2022-09-11T17:14:43.991Z,5.95
2022-09-11T17:17:35.893Z,6.00
2022-09-11T17:20:25.838Z,7.13
2022-09-11T17:23:17.515Z,6.13
2022-09-11T17:26:13.985Z,4.55
2022-09-11T17:29:05.251Z,7.13
2022-09-11T17:32:16.646Z,6.95
2022-09-11T17:35:05.961Z,10.25
2022-09-11T17:37:55.876Z,9.15
2022-09-11T17:40:46.176Z,7.22
2022-09-11T17:43:37.674Z,7.65
2022-09-11T17:46:28.179Z,8.50
2022-09-11T17:49:19.146Z,5.90
2022-09-11T17:52:09.860Z,8.20
2022-09-11T17:55:00.072Z,6.55
2022-09-11T17:57:53.586Z,9.73
2022-09-11T18:00:43.820Z,9.80
2022-09-11T18:03:35.237Z,9.68
2022-09-11T18:06:33.829Z,9.80
2022-09-11T18:09:24.075Z,9.55
2022-09-11T18:12:14.901Z,8.90
2022-09-11T18:15:06.440Z,11.15
2022-09-11T18:17:57.155Z,10.43
2022-09-11T18:20:47.618Z,10.35
2022-09-11T18:23:42.918Z,8.35
2022-09-11T18:26:39.410Z,11.02
2022-09-11T18:29:30.603Z,7.63
2022-09-11T18:32:20.833Z,8.98
2022-09-11T18:35:10.806Z,8.23
2022-09-11T18:38:00.883Z,13.52
2022-09-11T18:40:56.654Z,10.30
2022-09-11T18:43:47.069Z,15.23
2022-09-11T18:46:37.695Z,16.63
2022-09-11T18:49:27.915Z,15.57
2022-09-11T18:52:20.619Z,13.20
2022-09-11T18:55:13.262Z,15.43
2022-09-11T18:58:03.267Z,12.25
2022-09-11T19:00:54.200Z,11.27
2022-09-11T19:03:45.095Z,12.35
2022-09-11T19:06:38.499Z,14.65
2022-09-11T19:09:29.272Z,10.83
2022-09-11T19:12:19.428Z,11.93
2022-09-11T19:15:10.348Z,14.23
2022-09-11T19:18:01.410Z,10.90
2022-09-11T19:21:04.553Z,10.73
2022-09-11T19:24:00.769Z,9.43
2022-09-11T19:26:52.160Z,10.77
2022-09-11T19:29:42.158Z,10.50
2022-09-11T19:32:33.541Z,11.10
2022-09-11T19:35:23.768Z,10.77
2022-09-11T19:38:13.846Z,12.43
2022-09-11T19:41:05.400Z,14.38
2022-09-11T19:44:00.312Z,12.32
2022-09-11T19:46:53.629Z,13.73
2022-09-11T19:49:44.330Z,12.45
2022-09-11T19:52:35.054Z,12.90
2022-09-11T19:55:25.883Z,13.63
2022-09-11T19:58:16.123Z,17.58
2022-09-11T20:01:14.147Z,15.82
2022-09-11T20:04:04.463Z,18.77
2022-09-11T20:09:43.541Z,16.15
2022-09-11T20:12:37.071Z,18.92
2022-09-11T20:15:27.044Z,15.07
2022-09-11T20:18:17.087Z,13.68
2022-09-11T20:21:10.535Z,16.10
2022-09-11T20:24:02.514Z,14.60
2022-09-11T20:26:53.101Z,14.23
2022-09-11T20:29:43.503Z,15.25
2022-09-11T20:32:37.769Z,15.85
2022-09-11T20:35:27.967Z,15.00
2022-09-11T20:38:18.198Z,14.70
2022-09-11T20:41:14.686Z,16.10
2022-09-11T20:44:04.636Z,16.33
2022-09-11T20:46:54.638Z,13.13
2022-09-11T20:49:45.011Z,13.77
2022-09-11T20:52:39.174Z,16.88
2022-09-11T20:55:29.845Z,16.95
2022-09-11T20:58:19.888Z,15.18
2022-09-11T21:01:14.088Z,13.32
2022-09-11T21:04:05.439Z,14.00
2022-09-11T21:06:55.518Z,17.67
2022-09-11T21:09:46.174Z,15.20
2022-09-11T21:12:36.231Z,14.25
2022-09-11T21:15:26.067Z,15.13
2022-09-11T21:18:15.892Z,13.75
2022-09-11T21:21:07.168Z,13.57
2022-09-11T21:24:01.192Z,15.55
2022-09-11T21:26:51.173Z,13.40
2022-09-11T21:29:41.651Z,13.07
2022-09-11T21:32:32.121Z,14.20
2022-09-11T21:35:22.343Z,16.38
2022-09-11T21:38:12.342Z,14.55
2022-09-11T21:41:04.256Z,17.55
2022-09-11T21:43:54.324Z,18.65
2022-09-11T21:46:44.460Z,16.25
2022-09-11T21:49:34.174Z,20.73
2022-09-11T21:52:24.044Z,18.50
2022-09-11T21:55:13.986Z,15.48
2022-09-11T21:58:04.725Z,15.23
2022-09-11T22:00:55.009Z,17.00
2022-09-11T22:03:45.341Z,22.23
2022-09-11T22:06:35.302Z,16.45
2022-09-11T22:09:25.544Z,15.75
2022-09-11T22:12:16.187Z,17.23
2022-09-11T22:15:06.846Z,14.30
2022-09-11T22:17:57.168Z,14.07
2022-09-11T22:20:47.071Z,13.77
2022-09-11T22:23:37.685Z,15.32
2022-09-11T22:26:30.067Z,14.93
2022-09-11T22:29:20.119Z,19.05
2022-09-11T22:32:10.181Z,18.20
2022-09-11T22:35:00.088Z,14.82
2022-09-11T22:37:50.016Z,17.95
2022-09-11T22:40:40.805Z,17.83
2022-09-11T22:43:30.760Z,18.08
2022-09-11T22:46:21.161Z,18.48
2022-09-11T22:49:11.016Z,19.33
2022-09-11T22:52:00.973Z,15.05
2022-09-11T22:54:51.145Z,17.40
2022-09-11T22:57:41.844Z,16.65
2022-09-11T23:00:32.212Z,19.45
2022-09-11T23:03:22.748Z,15.88
2022-09-11T23:06:48.457Z,15.32
2022-09-11T23:09:38.723Z,16.95
2022-09-11T23:12:28.915Z,15.05
2022-09-11T23:15:21.159Z,15.38
2022-09-11T23:18:11.414Z,19.08
2022-09-11T23:21:01.905Z,15.90
2022-09-11T23:23:54.679Z,15.60
2022-09-11T23:26:45.326Z,16.27
2022-09-11T23:29:35.351Z,17.27
2022-09-11T23:32:25.403Z,16.10
2022-09-11T23:35:15.299Z,15.75
2022-09-11T23:38:06.841Z,16.65
2022-09-11T23:40:56.620Z,19.55
2022-09-11T23:43:46.674Z,16.80
2022-09-11T23:46:36.713Z,14.90
2022-09-11T23:49:26.599Z,15.90
2022-09-11T23:52:16.487Z,15.07
2022-09-11T23:55:06.740Z,16.63
2022-09-11T23:57:56.427Z,15.35
